createdAt,value
2023-02-23T00:01:42.569Z,11.81
2023-02-23T00:04:10.960Z,11.76
2023-02-23T00:06:39.841Z,11.76
2023-02-23T00:09:23.297Z,11.86
2023-02-23T00:11:53.239Z,11.84
2023-02-23T00:14:21.248Z,11.77
2023-02-23T00:16:49.008Z,11.76
2023-02-23T00:19:17.551Z,11.75
2023-02-23T00:21:45.458Z,11.68
2023-02-23T00:24:15.334Z,11.67
2023-02-23T00:26:43.582Z,11.69
2023-02-23T00:29:17.476Z,11.70
2023-02-23T00:31:46.088Z,11.68
2023-02-23T00:34:16.215Z,11.70
2023-02-23T00:36:44.374Z,11.71
2023-02-23T00:39:18.606Z,11.67
2023-02-23T00:41:47.392Z,11.64
2023-02-23T00:44:17.071Z,11.65
2023-02-23T00:46:45.800Z,11.67
2023-02-23T00:49:14.669Z,11.67
2023-02-23T00:51:42.454Z,11.69
2023-02-23T00:54:13.573Z,11.69
2023-02-23T00:56:41.912Z,11.65
2023-02-23T00:59:10.012Z,11.65
2023-02-23T01:01:41.833Z,11.64
2023-02-23T01:04:10.801Z,11.70
2023-02-23T01:06:38.837Z,11.70
2023-02-23T01:09:09.775Z,11.75
2023-02-23T01:11:37.971Z,11.78
2023-02-23T01:14:06.058Z,11.75
2023-02-23T01:16:34.987Z,11.76
2023-02-23T01:19:05.690Z,11.74
2023-02-23T01:21:35.566Z,11.67
2023-02-23T01:24:03.389Z,11.66
2023-02-23T01:26:34.029Z,11.66
2023-02-23T01:29:04.624Z,11.73
2023-02-23T01:31:32.665Z,11.74
2023-02-23T01:34:02.148Z,11.75
2023-02-23T01:36:35.380Z,11.76
2023-02-23T01:39:06.006Z,11.78
2023-02-23T01:41:34.088Z,11.79
2023-02-23T01:44:05.102Z,11.78
2023-02-23T01:46:34.164Z,11.83
2023-02-23T01:49:03.884Z,11.82
2023-02-23T01:51:36.048Z,11.70
2023-02-23T01:54:08.907Z,11.65
2023-02-23T01:56:43.452Z,11.63
2023-02-23T01:59:13.342Z,11.72
2023-02-23T02:01:42.122Z,11.72
2023-02-23T02:04:16.491Z,11.74
2023-02-23T02:06:53.372Z,11.73
2023-02-23T02:09:25.690Z,11.69
2023-02-23T02:11:54.222Z,11.65
2023-02-23T02:14:25.369Z,11.68
2023-02-23T02:17:16.885Z,11.66
2023-02-23T02:20:14.296Z,11.62
2023-02-23T02:23:14.957Z,11.64
2023-02-23T02:25:53.146Z,11.58
2023-02-23T02:28:59.801Z,11.57
2023-02-23T02:32:04.375Z,11.49
2023-02-23T02:35:05.677Z,11.48
2023-02-23T02:37:48.397Z,11.46
2023-02-23T02:40:25.758Z,11.44
2023-02-23T02:43:09.237Z,11.49
2023-02-23T02:45:44.056Z,11.55
2023-02-23T02:48:19.359Z,11.62
2023-02-23T02:50:53.726Z,11.58
2023-02-23T02:53:29.917Z,11.56
2023-02-23T02:56:00.909Z,11.55
2023-02-23T02:58:28.931Z,11.53
2023-02-23T03:01:14.750Z,11.57
2023-02-23T03:04:02.687Z,11.57
2023-02-23T03:06:50.625Z,11.55
2023-02-23T03:09:51.043Z,11.56
2023-02-23T03:12:45.621Z,11.58
2023-02-23T03:15:48.213Z,11.59
2023-02-23T03:18:47.812Z,11.61
2023-02-23T03:21:37.323Z,11.64
2023-02-23T03:24:29.813Z,11.63
2023-02-23T03:27:23.581Z,11.65
2023-02-23T03:30:14.041Z,11.71
2023-02-23T03:33:07.005Z,11.70
2023-02-23T03:35:59.567Z,11.63
2023-02-23T03:38:52.648Z,11.70
2023-02-23T03:41:41.242Z,11.82
2023-02-23T03:44:32.062Z,11.85
2023-02-23T03:47:20.003Z,11.82
2023-02-23T03:50:07.936Z,11.79
2023-02-23T03:52:58.029Z,11.75
2023-02-23T03:55:48.281Z,11.76
2023-02-23T03:58:40.664Z,11.72
2023-02-23T04:01:30.108Z,11.65
2023-02-23T04:04:17.477Z,11.67
2023-02-23T04:07:05.549Z,11.64
2023-02-23T04:09:51.380Z,11.55
2023-02-23T04:12:41.781Z,11.57
2023-02-23T04:15:13.072Z,11.61
2023-02-23T04:17:43.564Z,11.59
2023-02-23T04:20:13.303Z,11.63
2023-02-23T04:22:41.077Z,11.54
2023-02-23T04:25:09.414Z,11.51
2023-02-23T04:27:37.619Z,11.53
2023-02-23T04:30:06.484Z,11.54
2023-02-23T04:32:34.423Z,11.47
2023-02-23T04:35:03.686Z,11.49
2023-02-23T04:37:31.541Z,11.55
2023-02-23T04:39:59.403Z,11.55
2023-02-23T04:42:27.317Z,11.56
2023-02-23T04:44:55.139Z,11.61
2023-02-23T04:47:23.556Z,11.69
2023-02-23T04:49:51.406Z,11.68
2023-02-23T04:52:20.502Z,11.63
2023-02-23T04:54:48.208Z,11.61
2023-02-23T04:57:16.183Z,11.60
2023-02-23T04:59:43.901Z,11.65
2023-02-23T05:02:11.887Z,11.68
2023-02-23T05:04:39.710Z,11.66
2023-02-23T05:07:07.483Z,11.63
2023-02-23T05:09:36.654Z,11.68
2023-02-23T05:12:04.766Z,11.70
2023-02-23T05:14:32.651Z,11.72
2023-02-23T05:17:00.823Z,11.66
2023-02-23T05:19:29.105Z,11.65
2023-02-23T05:21:59.790Z,11.69
2023-02-23T05:24:27.531Z,11.61
2023-02-23T05:26:56.723Z,11.57
2023-02-23T05:29:24.467Z,11.59
2023-02-23T05:31:52.250Z,11.60
2023-02-23T05:34:20.004Z,11.62
2023-02-23T05:36:47.756Z,11.68
2023-02-23T05:39:15.467Z,11.75
2023-02-23T05:41:43.235Z,11.82
2023-02-23T05:44:14.503Z,11.91
2023-02-23T05:46:42.196Z,11.92
2023-02-23T05:49:12.708Z,11.96
2023-02-23T05:51:40.576Z,11.92
2023-02-23T05:54:08.704Z,11.87
2023-02-23T05:56:36.624Z,11.79
2023-02-23T05:59:04.869Z,11.73
2023-02-23T06:01:34.837Z,11.68
2023-02-23T06:04:04.547Z,11.62
2023-02-23T06:06:33.058Z,11.69
2023-02-23T06:09:01.382Z,11.75
2023-02-23T06:11:29.102Z,11.66
2023-02-23T06:13:59.360Z,11.61
2023-02-23T06:16:27.306Z,11.67
2023-02-23T06:18:56.385Z,11.63
2023-02-23T06:21:25.108Z,11.82
2023-02-23T06:23:53.283Z,11.79
2023-02-23T06:26:21.647Z,11.77
2023-02-23T06:28:49.234Z,11.69
2023-02-23T06:31:17.162Z,11.77
2023-02-23T06:33:44.965Z,11.69
2023-02-23T06:36:13.894Z,11.68
2023-02-23T06:38:41.564Z,11.76
2023-02-23T06:41:10.128Z,11.75
2023-02-23T06:43:37.830Z,11.79
2023-02-23T06:46:06.185Z,11.85
2023-02-23T06:48:33.870Z,11.86
2023-02-23T06:51:01.766Z,11.84
2023-02-23T06:53:31.473Z,11.88
2023-02-23T06:55:59.444Z,11.87
2023-02-23T06:58:28.305Z,11.88
2023-02-23T07:00:58.651Z,11.86
2023-02-23T07:03:27.142Z,11.77
2023-02-23T07:05:54.914Z,11.70
2023-02-23T07:08:22.688Z,11.68
2023-02-23T07:10:51.688Z,11.70
2023-02-23T07:13:20.435Z,11.72
2023-02-23T07:15:48.033Z,11.70
2023-02-23T07:18:16.261Z,11.75
2023-02-23T07:20:44.054Z,11.74
2023-02-23T07:23:11.617Z,11.73
2023-02-23T07:25:39.294Z,11.73
2023-02-23T07:28:08.316Z,11.74
2023-02-23T07:30:36.012Z,11.71
2023-02-23T07:33:03.699Z,11.76
2023-02-23T07:35:31.377Z,11.70
2023-02-23T07:37:59.100Z,11.72
2023-02-23T07:40:26.828Z,11.72
2023-02-23T07:42:55.415Z,11.73
2023-02-23T07:45:25.070Z,11.82
2023-02-23T07:47:52.750Z,11.92
2023-02-23T07:50:20.542Z,11.81
2023-02-23T07:52:48.172Z,11.88
2023-02-23T07:55:15.899Z,11.91
2023-02-23T07:57:43.477Z,11.96
2023-02-23T08:00:12.924Z,12.05
2023-02-23T08:02:42.380Z,12.12
2023-02-23T08:05:10.418Z,12.18
2023-02-23T08:07:38.087Z,12.14
2023-02-23T08:10:06.432Z,12.20
2023-02-23T08:12:34.705Z,12.24
2023-02-23T08:15:02.727Z,12.26
2023-02-23T08:17:30.436Z,12.27
2023-02-23T08:20:00.288Z,12.29
2023-02-23T08:22:29.382Z,12.42
2023-02-23T08:24:58.219Z,12.38
2023-02-23T08:27:26.092Z,12.37
2023-02-23T08:29:57.020Z,12.35
2023-02-23T08:32:24.778Z,12.38
2023-02-23T08:34:52.582Z,12.52
2023-02-23T08:37:21.483Z,12.59
2023-02-23T08:39:49.515Z,12.77
2023-02-23T08:42:18.133Z,13.06
2023-02-23T08:44:45.794Z,13.31
2023-02-23T08:47:16.399Z,13.61
2023-02-23T08:49:44.254Z,13.87
2023-02-23T08:52:11.861Z,14.15
2023-02-23T08:54:40.835Z,14.51
2023-02-23T08:57:09.232Z,14.80
2023-02-23T08:59:39.119Z,15.08
2023-02-23T09:02:08.472Z,15.36
2023-02-23T09:04:36.684Z,15.79
2023-02-23T09:07:05.557Z,16.47
2023-02-23T09:09:34.204Z,16.81
2023-02-23T09:12:03.137Z,16.89
2023-02-23T09:14:32.210Z,17.00
2023-02-23T09:16:59.918Z,18.07
2023-02-23T09:19:28.064Z,17.91
2023-02-23T09:21:55.782Z,17.28
2023-02-23T09:24:23.419Z,16.76
2023-02-23T09:26:53.466Z,16.37
2023-02-23T09:29:23.075Z,15.96
2023-02-23T09:31:53.074Z,15.73
2023-02-23T09:34:20.875Z,15.70
2023-02-23T09:36:48.486Z,15.87
2023-02-23T09:39:16.186Z,16.14
2023-02-23T09:42:01.132Z,16.39
2023-02-23T09:44:43.383Z,16.45
2023-02-23T09:47:24.896Z,16.50
2023-02-23T09:49:53.071Z,17.15
2023-02-23T09:52:25.293Z,17.97
2023-02-23T09:54:53.209Z,19.00
2023-02-23T09:57:26.545Z,20.03
2023-02-23T09:59:55.751Z,21.10
2023-02-23T10:02:31.171Z,22.28
2023-02-23T10:05:03.289Z,23.20
2023-02-23T10:07:41.296Z,23.04
2023-02-23T10:10:22.553Z,21.54
2023-02-23T10:13:00.924Z,20.02
2023-02-23T10:15:39.417Z,18.95
2023-02-23T10:18:20.312Z,18.41
2023-02-23T10:20:55.576Z,18.65
2023-02-23T10:23:31.275Z,18.82
2023-02-23T10:26:01.745Z,18.94
2023-02-23T10:28:36.133Z,18.56
2023-02-23T10:31:18.751Z,18.09
2023-02-23T10:33:47.501Z,17.63
2023-02-23T10:36:19.885Z,17.23
2023-02-23T10:38:48.077Z,17.08
2023-02-23T10:41:15.777Z,17.77
2023-02-23T10:43:43.506Z,19.56
2023-02-23T10:46:21.946Z,20.36
2023-02-23T10:48:52.001Z,20.41
2023-02-23T10:51:22.936Z,20.14
2023-02-23T10:53:52.798Z,19.69
2023-02-23T10:56:22.310Z,19.14
2023-02-23T10:58:52.404Z,18.55
2023-02-23T11:01:41.865Z,18.36
2023-02-23T11:04:20.417Z,18.24
2023-02-23T11:06:48.587Z,17.95
2023-02-23T11:09:41.263Z,17.81
2023-02-23T11:12:21.576Z,17.47
2023-02-23T11:14:50.197Z,17.11
2023-02-23T11:17:31.283Z,16.79
2023-02-23T11:20:02.699Z,16.67
2023-02-23T11:22:37.077Z,16.58
2023-02-23T11:25:16.835Z,16.55
2023-02-23T11:27:51.267Z,16.66
2023-02-23T11:30:22.390Z,16.77
2023-02-23T11:32:55.579Z,16.86
2023-02-23T11:35:32.537Z,16.79
2023-02-23T11:38:00.408Z,17.25
2023-02-23T11:40:30.118Z,17.53
2023-02-23T11:43:07.609Z,17.91
2023-02-23T11:45:41.492Z,19.10
2023-02-23T11:48:23.166Z,19.46
2023-02-23T11:50:51.350Z,19.75
2023-02-23T11:53:22.239Z,19.73
2023-02-23T11:55:54.715Z,19.45
2023-02-23T11:58:28.148Z,19.01
2023-02-23T12:00:57.866Z,18.60
2023-02-23T12:03:29.290Z,18.37
2023-02-23T12:05:59.208Z,18.29
2023-02-23T12:08:36.360Z,18.18
2023-02-23T12:11:08.809Z,17.86
2023-02-23T12:13:41.619Z,17.53
2023-02-23T12:16:18.641Z,17.49
2023-02-23T12:18:56.688Z,17.64
2023-02-23T12:21:34.012Z,17.71
2023-02-23T12:24:13.594Z,17.92
2023-02-23T12:26:49.323Z,18.43
2023-02-23T12:29:24.147Z,18.69
2023-02-23T12:31:57.897Z,18.95
2023-02-23T12:34:31.786Z,18.92
2023-02-23T12:37:07.421Z,18.81
2023-02-23T12:39:39.737Z,18.71
2023-02-23T12:42:15.431Z,18.59
2023-02-23T12:44:48.125Z,18.55
2023-02-23T12:47:24.657Z,18.45
2023-02-23T12:50:00.279Z,18.33
2023-02-23T12:52:33.224Z,18.23
2023-02-23T12:55:00.818Z,18.02
2023-02-23T12:57:38.601Z,17.86
2023-02-23T13:00:31.205Z,17.60
2023-02-23T13:03:30.276Z,17.38
2023-02-23T13:06:05.167Z,17.30
2023-02-23T13:08:50.474Z,17.27
2023-02-23T13:11:29.146Z,17.15
2023-02-23T13:14:02.542Z,16.99
2023-02-23T13:16:35.331Z,16.82
2023-02-23T13:19:12.808Z,16.76
2023-02-23T13:21:48.538Z,16.60
2023-02-23T13:24:20.010Z,16.45
2023-02-23T13:26:53.003Z,16.34
2023-02-23T13:29:32.319Z,16.32
2023-02-23T13:32:01.311Z,16.30
2023-02-23T13:34:32.140Z,16.25
2023-02-23T13:37:07.202Z,16.17
2023-02-23T13:39:53.875Z,16.17
2023-02-23T13:42:37.984Z,16.16
2023-02-23T13:45:37.649Z,16.15
2023-02-23T13:48:15.168Z,16.18
2023-02-23T13:50:48.567Z,16.22
2023-02-23T13:53:42.511Z,16.22
2023-02-23T13:56:16.117Z,16.18
2023-02-23T13:58:49.229Z,16.11
2023-02-23T14:01:19.434Z,16.07
2023-02-23T14:03:55.674Z,16.02
2023-02-23T14:06:26.172Z,15.96
2023-02-23T14:09:00.705Z,15.90
2023-02-23T14:11:31.039Z,15.88
2023-02-23T14:14:01.852Z,15.85
2023-02-23T14:16:30.258Z,15.84
2023-02-23T14:19:10.323Z,15.82
2023-02-23T14:21:45.955Z,15.85
2023-02-23T14:24:19.404Z,15.83
2023-02-23T14:27:12.770Z,15.83
2023-02-23T14:29:43.778Z,15.79
2023-02-23T14:32:31.830Z,15.74
2023-02-23T14:35:01.234Z,15.71
2023-02-23T14:37:33.060Z,15.73
2023-02-23T14:40:15.614Z,15.72
2023-02-23T14:42:47.426Z,15.71
2023-02-23T14:45:20.510Z,15.68
2023-02-23T14:47:51.765Z,15.64
2023-02-23T14:50:27.562Z,15.64
2023-02-23T14:52:57.533Z,15.62
2023-02-23T14:55:29.399Z,15.63
2023-02-23T14:57:58.437Z,15.61
2023-02-23T15:00:28.571Z,15.63
2023-02-23T15:03:00.114Z,15.64
2023-02-23T15:05:30.409Z,15.59
2023-02-23T15:08:01.063Z,15.56
2023-02-23T15:10:34.196Z,15.54
2023-02-23T15:13:08.956Z,15.48
2023-02-23T15:15:39.260Z,15.48
2023-02-23T15:18:06.929Z,15.47
2023-02-23T15:23:04.433Z,15.46
2023-02-23T15:25:39.237Z,15.41
2023-02-23T15:28:22.204Z,15.38
2023-02-23T15:30:51.896Z,15.39
2023-02-23T15:33:23.515Z,15.43
2023-02-23T15:35:57.167Z,15.42
2023-02-23T15:38:45.738Z,15.42
2023-02-23T15:41:26.362Z,15.41
2023-02-23T15:43:54.254Z,15.37
2023-02-23T15:46:25.994Z,15.35
2023-02-23T15:48:56.424Z,15.34
2023-02-23T15:51:37.061Z,15.33
2023-02-23T15:54:13.825Z,15.33
2023-02-23T15:56:46.723Z,15.32
2023-02-23T15:59:20.889Z,15.30
2023-02-23T16:01:48.658Z,15.27
2023-02-23T16:04:19.886Z,15.24
2023-02-23T16:06:52.131Z,15.21
2023-02-23T16:09:28.963Z,15.17
2023-02-23T16:12:02.983Z,15.15
2023-02-23T16:14:36.158Z,15.09
2023-02-23T16:17:11.936Z,15.02
2023-02-23T16:19:41.604Z,14.97
2023-02-23T16:22:23.117Z,14.95
2023-02-23T16:25:00.191Z,14.93
2023-02-23T16:27:30.977Z,14.88
2023-02-23T16:30:01.322Z,14.84
2023-02-23T16:32:37.831Z,14.82
2023-02-23T16:35:16.642Z,14.78
2023-02-23T16:37:53.303Z,14.73
2023-02-23T16:40:20.948Z,14.72
2023-02-23T16:42:50.057Z,14.68
2023-02-23T16:45:19.026Z,14.63
2023-02-23T16:47:48.679Z,14.61
2023-02-23T16:50:20.534Z,14.59
2023-02-23T16:52:51.865Z,14.58
2023-02-23T16:55:25.413Z,14.56
2023-02-23T16:57:57.436Z,14.56
2023-02-23T17:00:28.702Z,14.51
2023-02-23T17:02:57.306Z,14.75
2023-02-23T17:05:25.837Z,14.56
2023-02-23T17:07:54.827Z,14.46
2023-02-23T17:10:27.788Z,14.44
2023-02-23T17:12:58.201Z,14.38
2023-02-23T17:15:29.077Z,14.64
2023-02-23T17:17:57.092Z,14.44
2023-02-23T17:20:25.873Z,14.37
2023-02-23T17:22:54.980Z,14.30
2023-02-23T17:25:26.385Z,14.27
2023-02-23T17:27:56.274Z,14.24
2023-02-23T17:30:24.935Z,14.23
2023-02-23T17:32:56.907Z,14.22
2023-02-23T17:35:25.659Z,14.19
2023-02-23T17:37:53.345Z,14.16
2023-02-23T17:40:28.721Z,14.15
2023-02-23T17:43:00.441Z,14.11
2023-02-23T17:45:28.871Z,14.10
2023-02-23T17:47:57.176Z,14.08
2023-02-23T17:50:27.012Z,14.07
2023-02-23T17:52:55.168Z,14.06
2023-02-23T17:55:24.636Z,14.00
2023-02-23T17:57:52.408Z,13.99
2023-02-23T18:00:22.122Z,13.93
2023-02-23T18:02:49.823Z,13.91
2023-02-23T18:05:17.665Z,13.90
2023-02-23T18:07:48.246Z,13.87
2023-02-23T18:10:16.934Z,13.90
2023-02-23T18:12:45.196Z,13.88
2023-02-23T18:15:13.022Z,13.85
2023-02-23T18:17:42.107Z,13.84
2023-02-23T18:20:14.062Z,13.82
2023-02-23T18:22:41.738Z,13.81
2023-02-23T18:25:10.899Z,13.80
2023-02-23T18:27:38.607Z,13.76
2023-02-23T18:30:07.661Z,13.75
2023-02-23T18:32:35.693Z,13.75
2023-02-23T18:35:05.493Z,13.73
2023-02-23T18:37:33.156Z,13.73
2023-02-23T18:40:00.819Z,13.72
2023-02-23T18:42:28.723Z,13.70
2023-02-23T18:44:56.517Z,13.68
2023-02-23T18:47:24.221Z,13.67
2023-02-23T18:49:52.751Z,13.66
2023-02-23T18:52:21.765Z,13.61
2023-02-23T18:54:49.497Z,13.60
2023-02-23T18:57:17.210Z,13.56
2023-02-23T18:59:46.052Z,13.54
2023-02-23T19:02:13.653Z,13.54
2023-02-23T19:04:41.387Z,13.52
2023-02-23T19:07:09.006Z,13.48
2023-02-23T19:09:40.866Z,13.44
2023-02-23T19:12:08.904Z,13.37
2023-02-23T19:14:48.717Z,13.31
2023-02-23T19:17:17.205Z,13.28
2023-02-23T19:19:44.970Z,13.22
2023-02-23T19:22:12.706Z,13.18
2023-02-23T19:24:41.832Z,13.14
2023-02-23T19:27:09.952Z,13.14
2023-02-23T19:29:37.800Z,13.11
2023-02-23T19:32:06.186Z,13.06
2023-02-23T19:34:33.923Z,13.02
2023-02-23T19:37:01.663Z,13.01
2023-02-23T19:39:29.992Z,12.97
2023-02-23T19:41:59.008Z,12.98
2023-02-23T19:44:26.751Z,13.01
2023-02-23T19:46:54.428Z,12.98
2023-02-23T19:49:22.114Z,12.98
2023-02-23T19:51:52.886Z,12.99
2023-02-23T19:54:20.812Z,12.98
2023-02-23T19:56:49.886Z,12.94
2023-02-23T19:59:18.895Z,12.93
2023-02-23T20:01:46.608Z,12.94
2023-02-23T20:04:14.285Z,12.97
2023-02-23T20:06:46.946Z,12.95
2023-02-23T20:09:15.558Z,12.96
2023-02-23T20:11:43.484Z,12.97
2023-02-23T20:14:12.384Z,12.97
2023-02-23T20:16:41.470Z,12.96
2023-02-23T20:19:09.175Z,12.93
2023-02-23T20:21:37.076Z,12.92
2023-02-23T20:24:05.496Z,12.90
2023-02-23T20:26:35.421Z,12.86
2023-02-23T20:29:05.014Z,12.85
2023-02-23T20:31:35.187Z,12.85
2023-02-23T20:34:06.231Z,12.86
2023-02-23T20:36:34.134Z,12.84
2023-02-23T20:39:01.827Z,12.83
2023-02-23T20:41:29.859Z,12.83
2023-02-23T20:43:59.763Z,12.81
2023-02-23T20:46:28.396Z,12.81
2023-02-23T20:48:56.246Z,12.81
2023-02-23T20:51:25.285Z,12.81
2023-02-23T20:53:52.941Z,12.80
2023-02-23T20:56:23.528Z,12.78
2023-02-23T20:58:54.268Z,12.79
2023-02-23T21:01:26.084Z,12.85
2023-02-23T21:03:54.684Z,12.94
2023-02-23T21:06:25.656Z,12.87
2023-02-23T21:08:55.783Z,12.85
2023-02-23T21:11:26.109Z,12.84
2023-02-23T21:13:54.324Z,12.81
2023-02-23T21:16:26.720Z,12.78
2023-02-23T21:19:04.078Z,12.75
2023-02-23T21:21:40.050Z,12.72
2023-02-23T21:24:08.737Z,12.72
2023-02-23T21:26:36.723Z,12.70
2023-02-23T21:29:08.149Z,12.67
2023-02-23T21:31:36.937Z,12.66
2023-02-23T21:34:06.417Z,12.62
2023-02-23T21:36:36.045Z,12.59
2023-02-23T21:39:04.607Z,12.53
2023-02-23T21:41:33.686Z,12.51
2023-02-23T21:44:01.739Z,12.48
2023-02-23T21:46:29.576Z,12.48
2023-02-23T21:48:57.421Z,12.48
2023-02-23T21:51:25.360Z,12.44
2023-02-23T21:53:57.828Z,12.43
2023-02-23T21:56:25.376Z,12.39
2023-02-23T21:58:55.773Z,12.35
2023-02-23T22:01:26.263Z,12.34
2023-02-23T22:03:55.010Z,12.32
2023-02-23T22:06:24.917Z,12.30
2023-02-23T22:08:54.556Z,12.27
2023-02-23T22:11:24.861Z,12.30
2023-02-23T22:13:58.777Z,12.27
2023-02-23T22:16:28.556Z,12.23
2023-02-23T22:18:56.304Z,12.21
2023-02-23T22:21:24.542Z,12.22
2023-02-23T22:23:53.405Z,12.21
2023-02-23T22:26:22.427Z,12.18
2023-02-23T22:28:50.055Z,12.16
2023-02-23T22:31:17.840Z,12.09
2023-02-23T22:33:45.589Z,12.06
2023-02-23T22:36:20.701Z,12.06
2023-02-23T22:38:48.352Z,12.11
2023-02-23T22:41:16.405Z,12.11
2023-02-23T22:43:47.202Z,12.14
2023-02-23T22:46:16.170Z,12.15
2023-02-23T22:48:45.390Z,12.14
2023-02-23T22:51:13.864Z,12.14
2023-02-23T22:53:41.717Z,12.11
2023-02-23T22:56:09.420Z,12.07
2023-02-23T22:58:37.661Z,12.11
2023-02-23T23:01:09.638Z,12.02
2023-02-23T23:03:39.714Z,11.99
2023-02-23T23:06:11.143Z,12.01
2023-02-23T23:08:41.103Z,12.03
2023-02-23T23:11:12.076Z,12.04
2023-02-23T23:13:44.366Z,12.03
2023-02-23T23:16:30.233Z,12.05
2023-02-23T23:19:02.365Z,11.99
2023-02-23T23:21:32.724Z,11.94
2023-02-23T23:24:05.696Z,11.91
2023-02-23T23:26:36.288Z,11.92
2023-02-23T23:29:05.802Z,11.97
2023-02-23T23:31:36.000Z,11.97
2023-02-23T23:34:06.188Z,12.00
2023-02-23T23:36:37.193Z,11.99
2023-02-23T23:39:06.773Z,12.00
2023-02-23T23:41:35.280Z,11.97
2023-02-23T23:44:05.174Z,11.98
2023-02-23T23:46:37.474Z,11.98
2023-02-23T23:49:07.986Z,11.94
2023-02-23T23:51:39.055Z,11.86
2023-02-23T23:54:08.512Z,11.81
2023-02-23T23:56:37.279Z,11.82
2023-02-23T23:59:07.128Z,11.82
